sensor_id;sensor_type;location;lat;lon;timestamp;P1;durP1;ratioP1;P2;durP2;ratioP2
21281;SDS011;10800;53.096;18.328;2022-08-21T00:00:12;11.00;;;5.92;;
21281;SDS011;10800;53.096;18.328;2022-08-21T00:05:25;12.55;;;6.08;;
21281;SDS011;10800;53.096;18.328;2022-08-21T00:10:32;15.28;;;5.85;;
21281;SDS011;10800;53.096;18.328;2022-08-21T00:15:44;16.73;;;6.78;;
21281;SDS011;10800;53.096;18.328;2022-08-21T00:20:52;18.17;;;6.40;;
21281;SDS011;10800;53.096;18.328;2022-08-21T00:26:03;14.03;;;7.22;;
21281;SDS011;10800;53.096;18.328;2022-08-21T00:31:13;11.60;;;6.47;;
21281;SDS011;10800;53.096;18.328;2022-08-21T00:36:24;11.73;;;6.30;;
21281;SDS011;10800;53.096;18.328;2022-08-21T00:41:31;11.15;;;7.05;;
21281;SDS011;10800;53.096;18.328;2022-08-21T00:46:39;16.12;;;6.58;;
21281;SDS011;10800;53.096;18.328;2022-08-21T00:51:53;17.05;;;7.58;;
21281;SDS011;10800;53.096;18.328;2022-08-21T00:57:05;16.27;;;7.53;;
21281;SDS011;10800;53.096;18.328;2022-08-21T01:02:11;20.08;;;7.50;;
21281;SDS011;10800;53.096;18.328;2022-08-21T01:07:21;13.15;;;7.20;;
21281;SDS011;10800;53.096;18.328;2022-08-21T01:12:28;14.87;;;7.15;;
21281;SDS011;10800;53.096;18.328;2022-08-21T01:17:39;13.00;;;6.00;;
21281;SDS011;10800;53.096;18.328;2022-08-21T01:22:46;16.20;;;6.92;;
21281;SDS011;10800;53.096;18.328;2022-08-21T01:27:55;14.43;;;6.00;;
21281;SDS011;10800;53.096;18.328;2022-08-21T01:33:09;12.63;;;6.35;;
21281;SDS011;10800;53.096;18.328;2022-08-21T01:38:18;10.23;;;6.12;;
21281;SDS011;10800;53.096;18.328;2022-08-21T01:43:43;13.40;;;5.78;;
21281;SDS011;10800;53.096;18.328;2022-08-21T01:48:49;11.25;;;5.87;;
21281;SDS011;10800;53.096;18.328;2022-08-21T01:59:24;10.85;;;6.22;;
21281;SDS011;10800;53.096;18.328;2022-08-21T02:04:32;12.13;;;7.60;;
21281;SDS011;10800;53.096;18.328;2022-08-21T02:09:41;17.27;;;8.53;;
21281;SDS011;10800;53.096;18.328;2022-08-21T02:14:50;14.47;;;7.28;;
21281;SDS011;10800;53.096;18.328;2022-08-21T02:19:56;14.75;;;7.35;;
21281;SDS011;10800;53.096;18.328;2022-08-21T02:25:01;15.98;;;8.10;;
21281;SDS011;10800;53.096;18.328;2022-08-21T02:30:13;14.93;;;8.83;;
21281;SDS011;10800;53.096;18.328;2022-08-21T02:35:28;17.23;;;8.28;;
21281;SDS011;10800;53.096;18.328;2022-08-21T02:40:37;20.15;;;7.65;;
21281;SDS011;10800;53.096;18.328;2022-08-21T02:45:46;11.85;;;7.80;;
21281;SDS011;10800;53.096;18.328;2022-08-21T02:50:54;18.20;;;7.73;;
21281;SDS011;10800;53.096;18.328;2022-08-21T03:01:34;12.93;;;7.45;;
21281;SDS011;10800;53.096;18.328;2022-08-21T03:12:10;19.80;;;8.07;;
21281;SDS011;10800;53.096;18.328;2022-08-21T03:17:17;17.20;;;9.28;;
21281;SDS011;10800;53.096;18.328;2022-08-21T03:22:34;13.10;;;7.37;;
21281;SDS011;10800;53.096;18.328;2022-08-21T03:28:02;12.85;;;8.45;;
21281;SDS011;10800;53.096;18.328;2022-08-21T03:38:43;14.07;;;7.47;;
21281;SDS011;10800;53.096;18.328;2022-08-21T03:43:53;20.08;;;7.30;;
21281;SDS011;10800;53.096;18.328;2022-08-21T03:49:01;14.10;;;8.20;;
21281;SDS011;10800;53.096;18.328;2022-08-21T03:54:08;13.70;;;7.92;;
21281;SDS011;10800;53.096;18.328;2022-08-21T03:59:41;16.57;;;7.60;;
21281;SDS011;10800;53.096;18.328;2022-08-21T04:05:00;15.93;;;8.15;;
21281;SDS011;10800;53.096;18.328;2022-08-21T04:10:07;16.17;;;9.00;;
21281;SDS011;10800;53.096;18.328;2022-08-21T04:15:46;12.30;;;7.90;;
21281;SDS011;10800;53.096;18.328;2022-08-21T04:21:19;18.00;;;8.30;;
21281;SDS011;10800;53.096;18.328;2022-08-21T04:26:43;18.30;;;8.90;;
21281;SDS011;10800;53.096;18.328;2022-08-21T04:31:50;17.03;;;8.87;;
21281;SDS011;10800;53.096;18.328;2022-08-21T04:37:01;18.17;;;10.77;;
21281;SDS011;10800;53.096;18.328;2022-08-21T04:42:14;20.57;;;11.90;;
21281;SDS011;10800;53.096;18.328;2022-08-21T04:53:12;24.07;;;11.90;;
21281;SDS011;10800;53.096;18.328;2022-08-21T04:58:21;28.65;;;15.23;;
21281;SDS011;10800;53.096;18.328;2022-08-21T05:03:29;25.27;;;15.18;;
21281;SDS011;10800;53.096;18.328;2022-08-21T05:08:44;23.27;;;14.60;;
21281;SDS011;10800;53.096;18.328;2022-08-21T05:14:11;25.12;;;15.58;;
21281;SDS011;10800;53.096;18.328;2022-08-21T05:20:05;23.33;;;14.80;;
21281;SDS011;10800;53.096;18.328;2022-08-21T05:25:54;25.33;;;13.53;;
21281;SDS011;10800;53.096;18.328;2022-08-21T05:31:22;20.83;;;13.23;;
21281;SDS011;10800;53.096;18.328;2022-08-21T05:36:29;20.97;;;13.10;;
21281;SDS011;10800;53.096;18.328;2022-08-21T05:47:34;22.33;;;12.90;;
21281;SDS011;10800;53.096;18.328;2022-08-21T05:52:49;21.00;;;13.70;;
21281;SDS011;10800;53.096;18.328;2022-08-21T06:03:40;21.60;;;14.73;;
21281;SDS011;10800;53.096;18.328;2022-08-21T06:09:06;21.60;;;14.40;;
21281;SDS011;10800;53.096;18.328;2022-08-21T06:14:52;24.80;;;14.38;;
21281;SDS011;10800;53.096;18.328;2022-08-21T06:20:05;22.27;;;14.93;;
21281;SDS011;10800;53.096;18.328;2022-08-21T06:25:37;30.17;;;17.95;;
21281;SDS011;10800;53.096;18.328;2022-08-21T06:36:45;36.15;;;21.12;;
21281;SDS011;10800;53.096;18.328;2022-08-21T06:42:05;38.60;;;23.70;;
21281;SDS011;10800;53.096;18.328;2022-08-21T06:52:40;47.33;;;26.20;;
21281;SDS011;10800;53.096;18.328;2022-08-21T06:57:51;33.95;;;22.37;;
21281;SDS011;10800;53.096;18.328;2022-08-21T07:02:57;28.25;;;18.92;;
21281;SDS011;10800;53.096;18.328;2022-08-21T07:08:02;26.82;;;17.32;;
21281;SDS011;10800;53.096;18.328;2022-08-21T07:13:08;26.35;;;15.95;;
21281;SDS011;10800;53.096;18.328;2022-08-21T07:18:13;28.80;;;16.48;;
21281;SDS011;10800;53.096;18.328;2022-08-21T07:23:22;22.10;;;14.90;;
21281;SDS011;10800;53.096;18.328;2022-08-21T07:28:29;26.82;;;15.40;;
21281;SDS011;10800;53.096;18.328;2022-08-21T07:33:35;24.47;;;15.08;;
21281;SDS011;10800;53.096;18.328;2022-08-21T07:38:41;25.65;;;14.25;;
21281;SDS011;10800;53.096;18.328;2022-08-21T07:43:46;24.67;;;13.45;;
21281;SDS011;10800;53.096;18.328;2022-08-21T07:48:54;27.05;;;14.98;;
21281;SDS011;10800;53.096;18.328;2022-08-21T07:54:10;19.45;;;13.40;;
21281;SDS011;10800;53.096;18.328;2022-08-21T07:59:18;17.92;;;13.15;;
21281;SDS011;10800;53.096;18.328;2022-08-21T08:04:27;21.23;;;13.08;;
21281;SDS011;10800;53.096;18.328;2022-08-21T08:09:33;17.57;;;11.38;;
21281;SDS011;10800;53.096;18.328;2022-08-21T08:14:42;20.17;;;11.97;;
21281;SDS011;10800;53.096;18.328;2022-08-21T08:19:50;21.82;;;12.40;;
21281;SDS011;10800;53.096;18.328;2022-08-21T08:24:56;18.80;;;12.58;;
21281;SDS011;10800;53.096;18.328;2022-08-21T08:30:04;18.12;;;11.33;;
21281;SDS011;10800;53.096;18.328;2022-08-21T08:35:13;15.43;;;10.98;;
21281;SDS011;10800;53.096;18.328;2022-08-21T08:40:25;13.62;;;10.50;;
21281;SDS011;10800;53.096;18.328;2022-08-21T08:45:37;17.12;;;12.00;;
21281;SDS011;10800;53.096;18.328;2022-08-21T08:50:49;17.42;;;12.45;;
21281;SDS011;10800;53.096;18.328;2022-08-21T08:55:56;21.17;;;13.85;;
21281;SDS011;10800;53.096;18.328;2022-08-21T09:01:18;16.52;;;12.15;;
21281;SDS011;10800;53.096;18.328;2022-08-21T09:06:21;20.50;;;12.60;;
21281;SDS011;10800;53.096;18.328;2022-08-21T09:11:48;19.30;;;12.63;;
21281;SDS011;10800;53.096;18.328;2022-08-21T09:16:56;18.90;;;12.35;;
21281;SDS011;10800;53.096;18.328;2022-08-21T09:28:07;17.17;;;12.13;;
21281;SDS011;10800;53.096;18.328;2022-08-21T09:33:32;19.05;;;11.83;;
21281;SDS011;10800;53.096;18.328;2022-08-21T09:38:40;19.07;;;9.70;;
21281;SDS011;10800;53.096;18.328;2022-08-21T09:43:52;13.53;;;10.25;;
21281;SDS011;10800;53.096;18.328;2022-08-21T09:48:58;14.65;;;10.00;;
21281;SDS011;10800;53.096;18.328;2022-08-21T09:54:12;12.10;;;9.58;;
21281;SDS011;10800;53.096;18.328;2022-08-21T09:59:20;17.82;;;11.63;;
21281;SDS011;10800;53.096;18.328;2022-08-21T10:04:38;14.60;;;10.35;;
21281;SDS011;10800;53.096;18.328;2022-08-21T10:09:57;13.62;;;9.90;;
21281;SDS011;10800;53.096;18.328;2022-08-21T10:36:45;6.85;;;5.45;;
21281;SDS011;10800;53.096;18.328;2022-08-21T10:42:07;6.15;;;5.40;;
21281;SDS011;10800;53.096;18.328;2022-08-21T10:47:28;7.85;;;5.40;;
21281;SDS011;10800;53.096;18.328;2022-08-21T10:53:19;6.50;;;5.05;;
21281;SDS011;10800;53.096;18.328;2022-08-21T10:59:03;8.73;;;6.22;;
21281;SDS011;10800;53.096;18.328;2022-08-21T11:09:42;8.33;;;6.40;;
21281;SDS011;10800;53.096;18.328;2022-08-21T11:20:35;10.08;;;6.60;;
21281;SDS011;10800;53.096;18.328;2022-08-21T11:48:40;5.00;;;4.35;;
21281;SDS011;10800;53.096;18.328;2022-08-21T11:54:01;5.50;;;3.72;;
21281;SDS011;10800;53.096;18.328;2022-08-21T11:59:22;4.83;;;3.90;;
21281;SDS011;10800;53.096;18.328;2022-08-21T12:04:31;7.73;;;4.17;;
21281;SDS011;10800;53.096;18.328;2022-08-21T12:09:39;3.90;;;3.47;;
21281;SDS011;10800;53.096;18.328;2022-08-21T12:15:06;4.22;;;3.45;;
21281;SDS011;10800;53.096;18.328;2022-08-21T12:20:22;7.90;;;3.70;;
21281;SDS011;10800;53.096;18.328;2022-08-21T12:36:21;3.77;;;3.20;;
21281;SDS011;10800;53.096;18.328;2022-08-21T12:41:47;6.28;;;2.95;;
21281;SDS011;10800;53.096;18.328;2022-08-21T12:46:58;3.02;;;2.62;;
21281;SDS011;10800;53.096;18.328;2022-08-21T12:52:09;4.80;;;2.60;;
21281;SDS011;10800;53.096;18.328;2022-08-21T12:57:23;9.23;;;3.12;;
21281;SDS011;10800;53.096;18.328;2022-08-21T13:02:33;5.42;;;2.55;;
21281;SDS011;10800;53.096;18.328;2022-08-21T13:07:46;3.20;;;2.22;;
21281;SDS011;10800;53.096;18.328;2022-08-21T13:12:59;2.60;;;2.07;;
21281;SDS011;10800;53.096;18.328;2022-08-21T13:23:48;12.13;;;9.60;;
21281;SDS011;10800;53.096;18.328;2022-08-21T13:35:19;8.27;;;5.13;;
21281;SDS011;10800;53.096;18.328;2022-08-21T13:40:39;5.13;;;2.30;;
21281;SDS011;10800;53.096;18.328;2022-08-21T13:45:48;4.07;;;1.93;;
21281;SDS011;10800;53.096;18.328;2022-08-21T13:50:59;2.70;;;2.08;;
21281;SDS011;10800;53.096;18.328;2022-08-21T13:56:20;2.50;;;1.60;;
21281;SDS011;10800;53.096;18.328;2022-08-21T14:02:12;2.73;;;2.00;;
21281;SDS011;10800;53.096;18.328;2022-08-21T14:06:57;3.97;;;2.10;;
21281;SDS011;10800;53.096;18.328;2022-08-21T14:12:11;2.47;;;1.83;;
21281;SDS011;10800;53.096;18.328;2022-08-21T14:17:37;3.83;;;1.90;;
21281;SDS011;10800;53.096;18.328;2022-08-21T14:22:44;1.63;;;1.53;;
21281;SDS011;10800;53.096;18.328;2022-08-21T14:27:57;2.50;;;1.80;;
21281;SDS011;10800;53.096;18.328;2022-08-21T14:33:13;5.37;;;2.10;;
21281;SDS011;10800;53.096;18.328;2022-08-21T14:38:25;5.47;;;2.60;;
21281;SDS011;10800;53.096;18.328;2022-08-21T14:43:31;4.77;;;2.40;;
21281;SDS011;10800;53.096;18.328;2022-08-21T14:48:37;2.73;;;1.77;;
21281;SDS011;10800;53.096;18.328;2022-08-21T14:59:09;5.13;;;2.27;;
21281;SDS011;10800;53.096;18.328;2022-08-21T15:04:18;2.03;;;1.83;;
21281;SDS011;10800;53.096;18.328;2022-08-21T15:32:30;4.00;;;2.27;;
21281;SDS011;10800;53.096;18.328;2022-08-21T15:37:36;3.13;;;1.87;;
21281;SDS011;10800;53.096;18.328;2022-08-21T15:42:41;10.60;;;5.27;;
21281;SDS011;10800;53.096;18.328;2022-08-21T15:47:47;2.67;;;2.17;;
21281;SDS011;10800;53.096;18.328;2022-08-21T15:58:34;2.67;;;2.03;;
21281;SDS011;10800;53.096;18.328;2022-08-21T16:03:56;1.63;;;1.53;;
21281;SDS011;10800;53.096;18.328;2022-08-21T16:09:02;9.30;;;5.20;;
21281;SDS011;10800;53.096;18.328;2022-08-21T16:14:30;4.47;;;1.73;;
21281;SDS011;10800;53.096;18.328;2022-08-21T16:19:41;4.23;;;2.10;;
21281;SDS011;10800;53.096;18.328;2022-08-21T16:24:54;1.60;;;1.40;;
21281;SDS011;10800;53.096;18.328;2022-08-21T16:30:02;1.30;;;1.20;;
21281;SDS011;10800;53.096;18.328;2022-08-21T16:35:10;2.10;;;1.60;;
21281;SDS011;10800;53.096;18.328;2022-08-21T16:40:23;1.70;;;1.60;;
21281;SDS011;10800;53.096;18.328;2022-08-21T16:45:51;4.23;;;2.37;;
21281;SDS011;10800;53.096;18.328;2022-08-21T16:50:57;11.53;;;7.43;;
21281;SDS011;10800;53.096;18.328;2022-08-21T16:56:19;10.13;;;9.13;;
21281;SDS011;10800;53.096;18.328;2022-08-21T17:02:16;14.30;;;13.00;;
21281;SDS011;10800;53.096;18.328;2022-08-21T17:07:25;9.27;;;5.33;;
21281;SDS011;10800;53.096;18.328;2022-08-21T17:12:34;7.53;;;4.37;;
21281;SDS011;10800;53.096;18.328;2022-08-21T17:17:43;4.10;;;2.43;;
21281;SDS011;10800;53.096;18.328;2022-08-21T17:22:49;7.37;;;5.17;;
21281;SDS011;10800;53.096;18.328;2022-08-21T17:27:55;6.93;;;4.57;;
21281;SDS011;10800;53.096;18.328;2022-08-21T17:33:03;9.43;;;5.77;;
21281;SDS011;10800;53.096;18.328;2022-08-21T17:38:09;3.63;;;2.13;;
21281;SDS011;10800;53.096;18.328;2022-08-21T17:43:17;4.73;;;4.00;;
21281;SDS011;10800;53.096;18.328;2022-08-21T17:48:22;3.57;;;2.40;;
21281;SDS011;10800;53.096;18.328;2022-08-21T17:53:28;3.50;;;2.63;;
21281;SDS011;10800;53.096;18.328;2022-08-21T17:58:41;15.40;;;8.10;;
21281;SDS011;10800;53.096;18.328;2022-08-21T18:03:48;9.20;;;5.10;;
21281;SDS011;10800;53.096;18.328;2022-08-21T18:08:53;5.83;;;3.00;;
21281;SDS011;10800;53.096;18.328;2022-08-21T18:14:01;8.80;;;4.77;;
21281;SDS011;10800;53.096;18.328;2022-08-21T18:19:10;5.87;;;3.40;;
21281;SDS011;10800;53.096;18.328;2022-08-21T18:24:18;5.73;;;2.50;;
21281;SDS011;10800;53.096;18.328;2022-08-21T18:29:26;6.43;;;2.77;;
21281;SDS011;10800;53.096;18.328;2022-08-21T18:34:33;6.33;;;2.70;;
21281;SDS011;10800;53.096;18.328;2022-08-21T18:39:41;7.83;;;4.03;;
21281;SDS011;10800;53.096;18.328;2022-08-21T19:13:23;4.90;;;2.80;;
21281;SDS011;10800;53.096;18.328;2022-08-21T19:23:47;5.50;;;3.00;;
21281;SDS011;10800;53.096;18.328;2022-08-21T19:28:56;6.37;;;2.73;;
21281;SDS011;10800;53.096;18.328;2022-08-21T19:34:05;6.40;;;3.00;;
21281;SDS011;10800;53.096;18.328;2022-08-21T19:39:55;10.57;;;5.40;;
21281;SDS011;10800;53.096;18.328;2022-08-21T19:45:43;6.03;;;3.43;;
21281;SDS011;10800;53.096;18.328;2022-08-21T19:50:56;11.70;;;5.03;;
21281;SDS011;10800;53.096;18.328;2022-08-21T19:56:49;11.20;;;6.50;;
21281;SDS011;10800;53.096;18.328;2022-08-21T20:08:22;10.63;;;4.63;;
21281;SDS011;10800;53.096;18.328;2022-08-21T20:13:52;9.60;;;3.47;;
21281;SDS011;10800;53.096;18.328;2022-08-21T20:19:28;6.90;;;4.30;;
21281;SDS011;10800;53.096;18.328;2022-08-21T20:30:59;7.97;;;4.00;;
21281;SDS011;10800;53.096;18.328;2022-08-21T20:36:21;6.13;;;3.60;;
21281;SDS011;10800;53.096;18.328;2022-08-21T20:42:19;6.40;;;3.53;;
21281;SDS011;10800;53.096;18.328;2022-08-21T20:53:31;6.07;;;3.07;;
21281;SDS011;10800;53.096;18.328;2022-08-21T21:27:02;3.73;;;2.10;;
21281;SDS011;10800;53.096;18.328;2022-08-21T21:32:57;4.83;;;2.83;;
21281;SDS011;10800;53.096;18.328;2022-08-21T21:38:41;9.40;;;3.37;;
21281;SDS011;10800;53.096;18.328;2022-08-21T21:44:00;11.30;;;2.83;;
21281;SDS011;10800;53.096;18.328;2022-08-21T22:01:02;5.93;;;2.60;;
21281;SDS011;10800;53.096;18.328;2022-08-21T22:06:49;4.00;;;2.60;;
21281;SDS011;10800;53.096;18.328;2022-08-21T22:17:51;6.47;;;3.10;;
21281;SDS011;10800;53.096;18.328;2022-08-21T22:23:19;5.33;;;2.53;;
21281;SDS011;10800;53.096;18.328;2022-08-21T22:28:49;10.40;;;2.43;;
21281;SDS011;10800;53.096;18.328;2022-08-21T22:34:20;10.80;;;2.53;;
21281;SDS011;10800;53.096;18.328;2022-08-21T22:51:23;6.40;;;2.77;;
21281;SDS011;10800;53.096;18.328;2022-08-21T22:57:06;6.43;;;2.20;;
21281;SDS011;10800;53.096;18.328;2022-08-21T23:08:32;5.90;;;2.30;;
21281;SDS011;10800;53.096;18.328;2022-08-21T23:14:08;6.07;;;2.30;;
21281;SDS011;10800;53.096;18.328;2022-08-21T23:31:38;7.07;;;2.20;;
21281;SDS011;10800;53.096;18.328;2022-08-21T23:43:05;4.83;;;1.93;;
